DAL8384 KBHM-KBHM
Flight info
| Callsign | DAL8384 |
|---|---|
| Flight time | 0h 20m |
| Altitude | 12 |
| Route | HI |
| Aircraft | C25C/H-C25C/L |
Departure
| Time | 2026-04-30 00:53 |
|---|---|
| Airport | Birmingham-Shuttlesworth International Airport (KBHM) |
Arrival
| Time | 2026-04-30 01:14 |
|---|---|
| Airport | Birmingham-Shuttlesworth International Airport (KBHM) |
| Time | Latitude | Longitude | Altitude | Speed | Heading |
|---|---|---|---|---|---|
| 2026-04-30 00:42 | 33.56313 | -86.75128 | 622 ft | 0 kts | 146° |
| 2026-04-30 00:48 | 33.56312 | -86.75127 | 622 ft | 1 kts | 157° |
| 2026-04-30 00:48 | 33.56312 | -86.75142 | 624 ft | 7 kts | 295° |
| 2026-04-30 00:48 | 33.56368 | -86.75246 | 618 ft | 18 kts | 289° |
| 2026-04-30 00:48 | 33.56375 | -86.75298 | 619 ft | 0 kts | 266° |
| 2026-04-30 00:50 | 33.56376 | -86.75302 | 619 ft | 5 kts | 287° |
| 2026-04-30 00:50 | 33.56448 | -86.75287 | 620 ft | 19 kts | 66° |
| 2026-04-30 00:50 | 33.56535 | -86.75120 | 627 ft | 27 kts | 49° |
| 2026-04-30 00:51 | 33.56605 | -86.74915 | 623 ft | 25 kts | 91° |
| 2026-04-30 00:51 | 33.56663 | -86.74757 | 626 ft | 20 kts | 54° |
| 2026-04-30 00:51 | 33.56750 | -86.74608 | 627 ft | 25 kts | 59° |
| 2026-04-30 00:51 | 33.56861 | -86.74410 | 631 ft | 29 kts | 57° |
| 2026-04-30 00:52 | 33.56982 | -86.74202 | 633 ft | 31 kts | 55° |
| 2026-04-30 00:52 | 33.57109 | -86.73979 | 629 ft | 33 kts | 57° |
| 2026-04-30 00:52 | 33.57258 | -86.73848 | 636 ft | 26 kts | 317° |
| 2026-04-30 00:52 | 33.57286 | -86.74028 | 634 ft | 31 kts | 235° |
| 2026-04-30 00:53 | 33.57136 | -86.74287 | 633 ft | 85 kts | 236° |
| 2026-04-30 00:53 | 33.56695 | -86.75060 | 838 ft | 132 kts | 233° |
| 2026-04-30 00:53 | 33.56067 | -86.75973 | 1338 ft | 146 kts | 229° |
| 2026-04-30 00:53 | 33.55361 | -86.76783 | 2170 ft | 130 kts | 217° |
| 2026-04-30 00:54 | 33.54179 | -86.77072 | 2921 ft | 145 kts | 182° |
| 2026-04-30 00:54 | 33.53135 | -86.76961 | 2915 ft | 159 kts | 179° |
| 2026-04-30 00:54 | 33.52345 | -86.76856 | 2924 ft | 178 kts | 178° |
| 2026-04-30 00:54 | 33.51029 | -86.76614 | 2953 ft | 207 kts | 172° |
| 2026-04-30 00:55 | 33.49579 | -86.76211 | 3204 ft | 218 kts | 165° |
| 2026-04-30 00:55 | 33.48124 | -86.75514 | 3397 ft | 232 kts | 159° |
| 2026-04-30 00:55 | 33.46936 | -86.72395 | 5212 ft | 204 kts | 83° |
| 2026-04-30 00:56 | 33.47450 | -86.70918 | 5625 ft | 192 kts | 42° |
| 2026-04-30 00:56 | 33.48751 | -86.70223 | 5876 ft | 221 kts | 359° |
| 2026-04-30 00:56 | 33.50327 | -86.70129 | 5297 ft | 264 kts | 351° |
| 2026-04-30 00:56 | 33.52607 | -86.70262 | 4733 ft | 220 kts | 348° |
| 2026-04-30 00:57 | 33.53604 | -86.70357 | 4240 ft | 212 kts | 350° |
| 2026-04-30 00:57 | 33.55024 | -86.70622 | 4042 ft | 191 kts | 346° |
| 2026-04-30 00:57 | 33.56394 | -86.70678 | 3797 ft | 225 kts | 355° |
| 2026-04-30 00:57 | 33.57928 | -86.70516 | 3253 ft | 214 kts | 4° |
| 2026-04-30 00:58 | 33.59252 | -86.70175 | 3290 ft | 166 kts | 340° |
| 2026-04-30 00:58 | 33.60352 | -86.70469 | 3070 ft | 164 kts | 340° |
| 2026-04-30 00:58 | 33.61492 | -86.70738 | 3090 ft | 182 kts | 359° |
| 2026-04-30 00:58 | 33.62762 | -86.70912 | 2841 ft | 202 kts | 343° |
| 2026-04-30 00:59 | 33.64236 | -86.71044 | 2986 ft | 218 kts | 349° |
| 2026-04-30 00:59 | 33.65598 | -86.71237 | 3373 ft | 186 kts | 349° |
| 2026-04-30 00:59 | 33.66684 | -86.71918 | 3504 ft | 179 kts | 315° |
| 2026-04-30 00:59 | 33.67623 | -86.72833 | 3523 ft | 181 kts | 319° |
| 2026-04-30 01:00 | 33.68849 | -86.73711 | 3906 ft | 202 kts | 356° |
| 2026-04-30 01:00 | 33.70280 | -86.73502 | 4512 ft | 228 kts | 8° |
| 2026-04-30 01:00 | 33.71778 | -86.73231 | 4548 ft | 190 kts | 358° |
| 2026-04-30 01:00 | 33.72967 | -86.73299 | 4914 ft | 182 kts | 351° |
| 2026-04-30 01:01 | 33.74237 | -86.73173 | 5121 ft | 189 kts | 5° |
| 2026-04-30 01:01 | 33.75594 | -86.72883 | 4723 ft | 223 kts | 10° |
| 2026-04-30 01:01 | 33.77151 | -86.72324 | 3745 ft | 250 kts | 14° |
| 2026-04-30 01:01 | 33.78784 | -86.71749 | 2890 ft | 235 kts | 13° |
| 2026-04-30 01:02 | 33.80247 | -86.71250 | 2902 ft | 204 kts | 8° |
| 2026-04-30 01:02 | 33.81506 | -86.71534 | 3142 ft | 166 kts | 346° |
| 2026-04-30 01:02 | 33.82591 | -86.71634 | 2910 ft | 169 kts | 352° |
| 2026-04-30 01:02 | 33.83892 | -86.71773 | 2200 ft | 187 kts | 343° |
| 2026-04-30 01:03 | 33.85194 | -86.72058 | 1856 ft | 190 kts | 347° |
| 2026-04-30 01:03 | 33.86527 | -86.72303 | 1481 ft | 191 kts | 350° |
| 2026-04-30 01:03 | 33.87789 | -86.72290 | 1658 ft | 188 kts | 18° |
| 2026-04-30 01:03 | 33.88636 | -86.71231 | 2697 ft | 174 kts | 58° |
| 2026-04-30 01:04 | 33.88875 | -86.69819 | 3413 ft | 178 kts | 97° |
| 2026-04-30 01:04 | 33.88627 | -86.68352 | 4070 ft | 176 kts | 81° |
| 2026-04-30 01:04 | 33.87977 | -86.67276 | 3794 ft | 205 kts | 173° |
| 2026-04-30 01:04 | 33.86465 | -86.67583 | 3769 ft | 227 kts | 199° |
| 2026-04-30 01:05 | 33.84893 | -86.68160 | 3312 ft | 232 kts | 200° |
| 2026-04-30 01:05 | 33.83566 | -86.68694 | 3448 ft | 176 kts | 201° |
| 2026-04-30 01:05 | 33.82541 | -86.69159 | 3566 ft | 140 kts | 201° |
| 2026-04-30 01:05 | 33.81521 | -86.69491 | 3176 ft | 151 kts | 197° |
| 2026-04-30 01:06 | 33.80596 | -86.69824 | 3159 ft | 128 kts | 213° |
| 2026-04-30 01:06 | 33.79873 | -86.70365 | 3110 ft | 117 kts | 216° |
| 2026-04-30 01:06 | 33.79254 | -86.70925 | 3045 ft | 106 kts | 223° |
| 2026-04-30 01:06 | 33.78991 | -86.71631 | 3112 ft | 88 kts | 270° |
| 2026-04-30 01:07 | 33.78901 | -86.72306 | 3410 ft | 86 kts | 256° |
| 2026-04-30 01:07 | 33.78781 | -86.73202 | 3585 ft | 126 kts | 261° |
| 2026-04-30 01:07 | 33.78536 | -86.74270 | 4071 ft | 141 kts | 235° |
| 2026-04-30 01:07 | 33.77595 | -86.74716 | 4227 ft | 163 kts | 192° |
| 2026-04-30 01:08 | 33.76135 | -86.74900 | 2720 ft | 240 kts | 179° |
| 2026-04-30 01:08 | 33.74675 | -86.74718 | 3342 ft | 186 kts | 179° |
| 2026-04-30 01:08 | 33.73422 | -86.74656 | 3351 ft | 165 kts | 186° |
| 2026-04-30 01:08 | 33.72434 | -86.74696 | 2965 ft | 147 kts | 186° |
| 2026-04-30 01:09 | 33.71427 | -86.74759 | 2733 ft | 119 kts | 179° |
| 2026-04-30 01:09 | 33.70625 | -86.74704 | 2565 ft | 121 kts | 178° |
| 2026-04-30 01:09 | 33.69800 | -86.74649 | 2472 ft | 113 kts | 185° |
| 2026-04-30 01:09 | 33.69045 | -86.74700 | 2338 ft | 105 kts | 181° |
| 2026-04-30 01:10 | 33.68314 | -86.74704 | 2405 ft | 110 kts | 179° |
| 2026-04-30 01:10 | 33.67570 | -86.74656 | 2490 ft | 115 kts | 181° |
| 2026-04-30 01:10 | 33.66717 | -86.74629 | 2703 ft | 125 kts | 185° |
| 2026-04-30 01:10 | 33.65865 | -86.74645 | 2822 ft | 131 kts | 186° |
| 2026-04-30 01:11 | 33.65033 | -86.74687 | 2812 ft | 108 kts | 182° |
| 2026-04-30 01:11 | 33.64248 | -86.74678 | 2591 ft | 115 kts | 181° |
| 2026-04-30 01:11 | 33.63463 | -86.74543 | 2419 ft | 110 kts | 176° |
| 2026-04-30 01:11 | 33.62728 | -86.74658 | 2037 ft | 111 kts | 189° |
| 2026-04-30 01:12 | 33.61980 | -86.74711 | 1838 ft | 109 kts | 192° |
| 2026-04-30 01:12 | 33.61247 | -86.74740 | 1794 ft | 104 kts | 175° |
| 2026-04-30 01:12 | 33.60526 | -86.74697 | 1686 ft | 108 kts | 185° |
| 2026-04-30 01:12 | 33.59722 | -86.74739 | 1522 ft | 123 kts | 172° |
| 2026-04-30 01:13 | 33.58933 | -86.74707 | 1395 ft | 106 kts | 179° |
| 2026-04-30 01:13 | 33.58211 | -86.74759 | 1091 ft | 104 kts | 172° |
| 2026-04-30 01:13 | 33.57502 | -86.74724 | 827 ft | 100 kts | 173° |
| 2026-04-30 01:13 | 33.56886 | -86.74729 | 643 ft | 73 kts | 167° |
| 2026-04-30 01:14 | 33.56472 | -86.74719 | 617 ft | 49 kts | 182° |
| 2026-04-30 01:14 | 33.56205 | -86.74721 | 611 ft | 31 kts | 182° |
| 2026-04-30 01:14 | 33.55989 | -86.74721 | 604 ft | 32 kts | 175° |
| 2026-04-30 01:14 | 33.55768 | -86.74739 | 604 ft | 30 kts | 223° |
| 2026-04-30 01:15 | 33.55756 | -86.74811 | 604 ft | 0 kts | 279° |
| 2026-04-30 01:15 | 33.55781 | -86.74844 | 605 ft | 7 kts | 17° |
| 2026-04-30 01:16 | 33.55858 | -86.74851 | 606 ft | 23 kts | 2° |
| 2026-04-30 01:16 | 33.56029 | -86.74852 | 606 ft | 24 kts | 2° |
| 2026-04-30 01:16 | 33.56174 | -86.74852 | 618 ft | 17 kts | 359° |
| 2026-04-30 01:16 | 33.56285 | -86.74893 | 613 ft | 19 kts | 292° |
| 2026-04-30 01:17 | 33.56408 | -86.74933 | 618 ft | 20 kts | 352° |
| 2026-04-30 01:17 | 33.56473 | -86.75037 | 621 ft | 15 kts | 268° |
| 2026-04-30 01:17 | 33.56407 | -86.75172 | 619 ft | 24 kts | 237° |
| 2026-04-30 01:17 | 33.56309 | -86.75345 | 623 ft | 24 kts | 236° |
| 2026-04-30 01:18 | 33.56295 | -86.75371 | 622 ft | 0 kts | 237° |
| 2026-04-30 01:19 | 33.56287 | -86.75369 | 624 ft | 4 kts | 136° |
| 2026-04-30 01:19 | 33.56269 | -86.75337 | 620 ft | 8 kts | 127° |
| 2026-04-30 01:19 | 33.56233 | -86.75299 | 620 ft | 0 kts | 146° |